Largo — PFNC — position and weather

sailwx.info

Track history (hours):
 
Tides and Currents Weather Stations Pressure Air Temp Water Temp Dewpoint Dewpoint Depression Visibility Wind Speed Wind Dir Waves Ship Positions

Largo

Last reported at 2016-Dec-02 01:32 UTC. Time now 2016-Dec-05 18:38 UTC.
Position N 39°09' E 001°40'.

Length 91 m; draft 4.7 m.

Type: Cargo ship. MMSI: 245645000.

Date/timePositionNaut miles runAvg speedWind from/ knotsBaromVisibWave heightAir tempDewpointWater temp
2016-Dec-02 01:32N 39°09' E 001°40'9 8.7
2016-Dec-02 00:33N 39°04' E 001°48'9 8.7
2016-Dec-01 23:33N 38°58' E 001°57'9 8.6
2016-Dec-01 22:32N 38°53' E 002°05'18 8.8
2016-Dec-01 20:26N 38°40' E 002°23'  
2016-Nov-27 02:25N 38°40' E 002°24'8 8.7
2016-Nov-27 01:31N 38°45' E 002°16'9 8.8
2016-Nov-27 00:33N 38°51' E 002°08'9 8.7
2016-Nov-26 23:33N 38°57' E 001°59'9 8.8
2016-Nov-26 22:33N 39°02' E 001°51'9 8.6
2016-Nov-26 21:33N 39°08' E 001°43'13 9.0
2016-Nov-26 20:04N 39°15' E 001°28'5 9.4
2016-Nov-26 19:31N 39°18' E 001°23'  
Track history (hours):
 
Tides and Currents Weather Stations Pressure Air Temp Water Temp Dewpoint Dewpoint Depression Visibility Wind Speed Wind Dir Waves Ship Positions

Largo

Last reported at 2016-Dec-02 01:32 UTC. Time now 2016-Dec-05 18:38 UTC.
Position N 39°09' E 001°40'.

Length 91 m; draft 4.7 m.

Type: Cargo ship. MMSI: 245645000.

Date/timePositionNaut miles runAvg speedWind from/ knotsBaromVisibWave heightAir tempDewpointWater temp
2016-Dec-02 01:32N 39°09' E 001°40'9 8.7
2016-Dec-02 00:33N 39°04' E 001°48'9 8.7
2016-Dec-01 23:33N 38°58' E 001°57'9 8.6
2016-Dec-01 22:32N 38°53' E 002°05'18 8.8
2016-Dec-01 20:26N 38°40' E 002°23'  
2016-Nov-27 02:25N 38°40' E 002°24'8 8.7
2016-Nov-27 01:31N 38°45' E 002°16'9 8.8
2016-Nov-27 00:33N 38°51' E 002°08'9 8.7
2016-Nov-26 23:33N 38°57' E 001°59'9 8.8
2016-Nov-26 22:33N 39°02' E 001°51'9 8.6
2016-Nov-26 21:33N 39°08' E 001°43'13 9.0
2016-Nov-26 20:04N 39°15' E 001°28'5 9.4
2016-Nov-26 19:31N 39°18' E 001°23'  

Dump ship's entire track history